createdAt,value
2023-04-08T00:01:23.199Z,8.57
2023-04-08T00:03:50.467Z,10.25
2023-04-08T00:06:17.486Z,10.13
2023-04-08T00:08:44.565Z,7.60
2023-04-08T00:11:11.613Z,11.73
2023-04-08T00:13:38.604Z,12.95
2023-04-08T00:16:05.847Z,14.25
2023-04-08T00:18:32.780Z,12.60
2023-04-08T00:21:00.532Z,10.93
2023-04-08T00:23:27.458Z,16.13
2023-04-08T00:25:54.414Z,11.90
2023-04-08T00:28:21.879Z,15.75
2023-04-08T00:30:49.247Z,10.50
2023-04-08T00:33:16.777Z,13.98
2023-04-08T00:35:43.721Z,13.20
2023-04-08T00:38:10.717Z,14.73
2023-04-08T00:40:39.056Z,11.50
2023-04-08T00:43:06.103Z,10.70
2023-04-08T00:45:34.431Z,9.05
2023-04-08T00:48:03.594Z,12.55
2023-04-08T00:50:30.829Z,10.40
2023-04-08T00:52:57.805Z,8.85
2023-04-08T00:55:24.775Z,10.95
2023-04-08T00:57:52.136Z,9.60
2023-04-08T01:00:19.267Z,12.23
2023-04-08T01:03:14.932Z,8.52
2023-04-08T01:05:48.205Z,10.65
2023-04-08T01:08:17.835Z,9.55
2023-04-08T01:10:48.978Z,10.75
2023-04-08T01:13:19.080Z,10.07
2023-04-08T01:15:46.644Z,8.20
2023-04-08T01:18:16.139Z,10.45
2023-04-08T01:20:44.727Z,11.85
2023-04-08T01:23:25.225Z,11.98
2023-04-08T01:25:56.339Z,7.43
2023-04-08T01:28:27.316Z,6.90
2023-04-08T01:30:56.940Z,9.30
2023-04-08T01:33:24.689Z,8.73
2023-04-08T01:35:57.398Z,7.53
2023-04-08T01:38:26.765Z,9.32
2023-04-08T01:40:55.954Z,7.55
2023-04-08T01:43:24.771Z,9.73
2023-04-08T01:45:54.677Z,9.50
2023-04-08T01:48:22.669Z,8.95
2023-04-08T01:50:51.425Z,8.15
2023-04-08T01:53:18.752Z,9.65
2023-04-08T01:55:46.174Z,9.27
2023-04-08T01:58:20.432Z,11.13
2023-04-08T02:00:48.561Z,9.15
2023-04-08T02:03:19.234Z,9.27
2023-04-08T02:05:46.917Z,11.10
2023-04-08T02:08:13.891Z,7.15
2023-04-08T02:10:40.968Z,8.82
2023-04-08T02:13:08.396Z,7.85
2023-04-08T02:15:42.231Z,13.52
2023-04-08T02:18:26.805Z,9.90
2023-04-08T02:21:04.709Z,9.05
2023-04-08T02:23:35.752Z,12.00
2023-04-08T02:26:04.972Z,7.82
2023-04-08T02:28:34.711Z,11.20
2023-04-08T02:31:03.876Z,9.20
2023-04-08T02:33:31.445Z,11.05
2023-04-08T02:35:59.032Z,7.53
2023-04-08T02:38:30.017Z,10.90
2023-04-08T02:40:57.590Z,6.40
2023-04-08T02:43:43.443Z,8.25
2023-04-08T02:46:11.803Z,9.35
2023-04-08T02:48:38.849Z,11.32
2023-04-08T02:51:06.249Z,9.45
2023-04-08T02:53:33.206Z,15.95
2023-04-08T02:56:00.593Z,11.52
2023-04-08T02:58:27.514Z,16.75
2023-04-08T03:00:54.592Z,15.10
2023-04-08T03:03:27.830Z,11.65
2023-04-08T03:05:56.044Z,9.00
2023-04-08T03:08:23.488Z,11.43
2023-04-08T03:10:51.068Z,10.75
2023-04-08T03:13:18.072Z,8.63
2023-04-08T03:15:45.032Z,7.00
2023-04-08T03:18:12.061Z,9.80
2023-04-08T03:20:39.007Z,12.57
2023-04-08T03:23:06.098Z,14.00
2023-04-08T03:25:33.047Z,10.48
2023-04-08T03:28:00.076Z,13.93
2023-04-08T03:30:27.420Z,10.55
2023-04-08T03:32:54.595Z,13.77
2023-04-08T03:35:21.697Z,15.55
2023-04-08T03:37:48.740Z,12.48
2023-04-08T03:40:15.677Z,14.10
2023-04-08T03:42:42.609Z,12.00
2023-04-08T03:45:09.798Z,10.65
2023-04-08T03:47:36.745Z,11.18
2023-04-08T03:50:03.841Z,8.65
2023-04-08T03:52:30.905Z,8.63
2023-04-08T03:54:57.862Z,11.40
2023-04-08T03:57:24.849Z,11.32
2023-04-08T03:59:51.841Z,7.68
2023-04-08T04:02:18.968Z,9.35
2023-04-08T04:04:46.144Z,11.30
2023-04-08T04:07:13.201Z,9.75
2023-04-08T04:09:40.186Z,11.73
2023-04-08T04:12:07.127Z,11.70
2023-04-08T04:14:34.093Z,9.48
2023-04-08T04:17:01.173Z,12.20
2023-04-08T04:19:32.053Z,10.57
2023-04-08T04:21:59.038Z,11.23
2023-04-08T04:24:25.998Z,11.00
2023-04-08T04:26:52.977Z,13.50
2023-04-08T04:29:19.962Z,13.27
2023-04-08T04:31:46.916Z,12.05
2023-04-08T04:34:14.026Z,9.90
2023-04-08T04:36:41.002Z,10.95
2023-04-08T04:39:07.976Z,11.55
2023-04-08T04:41:39.012Z,13.43
2023-04-08T04:44:06.869Z,13.48
2023-04-08T04:46:33.997Z,10.93
2023-04-08T04:49:01.367Z,13.48
2023-04-08T04:51:28.642Z,13.43
2023-04-08T04:53:55.562Z,13.23
2023-04-08T04:56:22.531Z,14.27
2023-04-08T04:58:49.675Z,10.82
2023-04-08T05:01:16.794Z,10.13
2023-04-08T05:03:43.861Z,17.88
2023-04-08T05:06:11.571Z,12.38
2023-04-08T05:08:38.619Z,13.40
2023-04-08T05:11:09.928Z,11.02
2023-04-08T05:13:36.967Z,12.05
2023-04-08T05:16:04.040Z,12.40
2023-04-08T05:18:31.038Z,12.88
2023-04-08T05:20:58.913Z,9.40
2023-04-08T05:23:25.904Z,13.57
2023-04-08T05:25:52.885Z,9.73
2023-04-08T05:28:20.066Z,9.93
2023-04-08T05:30:51.550Z,13.35
2023-04-08T05:33:19.150Z,14.20
2023-04-08T05:35:46.436Z,13.05
2023-04-08T05:38:13.452Z,11.50
2023-04-08T05:40:40.602Z,8.38
2023-04-08T05:43:07.572Z,10.75
2023-04-08T05:45:34.641Z,10.43
2023-04-08T05:48:01.717Z,8.98
2023-04-08T05:50:28.771Z,13.00
2023-04-08T05:52:55.825Z,11.65
2023-04-08T05:55:22.781Z,7.28
2023-04-08T05:57:49.739Z,10.70
2023-04-08T06:00:17.078Z,10.15
2023-04-08T06:02:44.266Z,14.10
2023-04-08T06:05:11.399Z,10.35
2023-04-08T06:07:38.419Z,10.20
2023-04-08T06:10:07.267Z,10.73
2023-04-08T06:12:40.896Z,8.07
2023-04-08T06:15:08.533Z,11.25
2023-04-08T06:17:39.515Z,10.48
2023-04-08T06:20:06.994Z,10.27
2023-04-08T06:22:33.957Z,13.05
2023-04-08T06:25:01.047Z,9.70
2023-04-08T06:27:29.678Z,9.52
2023-04-08T06:29:56.646Z,8.98
2023-04-08T06:32:23.670Z,9.55
2023-04-08T06:34:51.069Z,8.40
2023-04-08T06:37:19.501Z,10.35
2023-04-08T06:39:46.523Z,10.95
2023-04-08T06:42:13.530Z,10.65
2023-04-08T06:44:59.678Z,11.75
2023-04-08T06:47:27.658Z,11.55
2023-04-08T06:49:54.683Z,10.15
2023-04-08T06:52:22.343Z,11.70
2023-04-08T06:54:49.330Z,19.60
2023-04-08T06:57:16.415Z,10.77
2023-04-08T06:59:43.382Z,10.20
2023-04-08T07:02:10.349Z,13.25
2023-04-08T07:04:38.327Z,9.57
2023-04-08T07:07:05.525Z,12.90
2023-04-08T07:09:32.739Z,13.98
2023-04-08T07:12:00.055Z,11.65
2023-04-08T07:14:27.138Z,12.00
2023-04-08T07:16:54.075Z,13.40
2023-04-08T07:19:21.178Z,13.75
2023-04-08T07:21:48.449Z,15.90
2023-04-08T07:24:16.078Z,10.68
2023-04-08T07:26:43.066Z,11.23
2023-04-08T07:29:10.526Z,12.18
2023-04-08T07:31:37.519Z,14.02
2023-04-08T07:34:04.582Z,9.18
2023-04-08T07:36:31.871Z,16.73
2023-04-08T07:38:58.805Z,11.20
2023-04-08T07:41:25.972Z,12.23
2023-04-08T07:43:53.075Z,13.75
2023-04-08T07:46:21.219Z,13.82
2023-04-08T07:48:48.494Z,12.48
2023-04-08T07:51:15.662Z,10.02
2023-04-08T07:53:42.620Z,12.50
2023-04-08T07:56:14.593Z,14.13
2023-04-08T07:58:42.381Z,11.07
2023-04-08T08:01:23.714Z,8.85
2023-04-08T08:03:53.134Z,13.45
2023-04-08T08:06:21.236Z,9.02
2023-04-08T08:08:48.252Z,9.35
2023-04-08T08:11:15.373Z,13.35
2023-04-08T08:13:42.581Z,10.40
2023-04-08T08:16:11.885Z,9.65
2023-04-08T08:18:40.645Z,8.43
2023-04-08T08:21:08.590Z,7.97
2023-04-08T08:23:35.672Z,8.07
2023-04-08T08:26:04.402Z,7.25
2023-04-08T08:28:31.607Z,6.72
2023-04-08T08:30:59.193Z,5.43
2023-04-08T08:33:26.376Z,11.50
2023-04-08T08:35:53.447Z,10.18
2023-04-08T08:38:20.582Z,7.30
2023-04-08T08:40:47.635Z,8.35
2023-04-08T08:43:14.700Z,8.27
2023-04-08T08:45:42.590Z,8.77
2023-04-08T08:48:09.838Z,9.73
2023-04-08T08:50:37.081Z,9.00
2023-04-08T08:53:04.094Z,6.10
2023-04-08T08:55:50.851Z,7.80
2023-04-08T08:58:20.938Z,9.05
2023-04-08T09:00:47.994Z,9.57
2023-04-08T09:03:37.206Z,5.88
2023-04-08T09:06:05.510Z,5.78
2023-04-08T09:08:37.136Z,7.80
2023-04-08T09:11:15.943Z,8.25
2023-04-08T09:13:43.502Z,10.50
2023-04-08T09:16:12.367Z,7.40
2023-04-08T09:18:40.031Z,7.53
2023-04-08T09:21:07.584Z,9.23
2023-04-08T09:23:39.042Z,6.20
2023-04-08T09:26:11.853Z,6.57
2023-04-08T09:28:40.667Z,9.13
2023-04-08T09:31:31.915Z,6.85
2023-04-08T09:34:04.687Z,9.38
2023-04-08T09:36:32.752Z,7.80
2023-04-08T09:38:59.739Z,8.23
2023-04-08T09:41:28.398Z,9.07
2023-04-08T09:43:56.970Z,8.25
2023-04-08T09:46:32.394Z,7.57
2023-04-08T09:49:13.019Z,8.68
2023-04-08T09:51:59.621Z,10.85
2023-04-08T09:54:38.230Z,6.47
2023-04-08T09:57:16.521Z,7.97
2023-04-08T09:59:52.888Z,7.50
2023-04-08T10:02:26.397Z,8.20
2023-04-08T10:04:56.296Z,8.30
2023-04-08T10:07:23.639Z,7.75
2023-04-08T10:09:50.971Z,7.07
2023-04-08T10:12:18.704Z,7.57
2023-04-08T10:15:24.396Z,7.13
2023-04-08T10:17:52.881Z,8.50
2023-04-08T10:20:35.124Z,10.60
2023-04-08T10:23:07.528Z,8.55
2023-04-08T10:25:36.139Z,8.43
2023-04-08T10:28:23.610Z,7.75
2023-04-08T10:30:55.511Z,8.43
2023-04-08T10:33:31.343Z,13.25
2023-04-08T10:36:07.634Z,6.43
2023-04-08T10:38:34.732Z,10.55
2023-04-08T10:41:02.676Z,6.85
2023-04-08T10:43:33.885Z,8.52
2023-04-08T10:46:01.567Z,7.90
2023-04-08T10:48:31.491Z,8.60
2023-04-08T10:51:06.649Z,8.18
2023-04-08T10:53:40.004Z,8.88
2023-04-08T10:56:18.517Z,8.93
2023-04-08T10:58:56.695Z,6.28
2023-04-08T11:01:23.800Z,9.98
2023-04-08T11:03:51.505Z,9.18
2023-04-08T11:06:19.561Z,10.73
2023-04-08T11:08:47.392Z,8.30
2023-04-08T11:11:14.949Z,9.32
2023-04-08T11:13:51.588Z,7.75
2023-04-08T11:16:21.844Z,9.77
2023-04-08T11:18:49.663Z,7.18
2023-04-08T11:21:17.462Z,10.25
2023-04-08T11:23:44.440Z,8.30
2023-04-08T11:26:11.882Z,7.68
2023-04-08T11:28:39.219Z,7.90
2023-04-08T11:31:07.613Z,8.40
2023-04-08T11:33:35.240Z,11.63
2023-04-08T11:36:06.010Z,9.40
2023-04-08T11:38:33.241Z,10.32
2023-04-08T11:41:00.661Z,8.70
2023-04-08T11:43:28.764Z,10.82
2023-04-08T11:45:55.919Z,10.00
2023-04-08T11:48:23.935Z,8.32
2023-04-08T11:51:04.885Z,7.20
2023-04-08T11:53:31.978Z,11.10
2023-04-08T11:55:58.936Z,10.10
2023-04-08T11:58:26.071Z,13.82
2023-04-08T12:00:53.064Z,9.65
2023-04-08T12:03:20.138Z,9.10
2023-04-08T12:05:47.130Z,9.40
2023-04-08T12:08:14.111Z,10.93
2023-04-08T12:10:41.402Z,10.00
2023-04-08T12:13:08.669Z,12.30
2023-04-08T12:15:35.629Z,13.65
2023-04-08T12:18:02.723Z,9.30
2023-04-08T12:20:29.797Z,10.38
2023-04-08T12:22:56.739Z,14.70
2023-04-08T12:25:23.775Z,15.85
2023-04-08T12:27:50.725Z,10.82
2023-04-08T12:30:17.822Z,11.82
2023-04-08T12:32:46.434Z,9.68
2023-04-08T12:35:13.643Z,9.85
2023-04-08T12:37:40.636Z,9.30
2023-04-08T12:40:08.364Z,9.68
2023-04-08T12:42:35.813Z,14.40
2023-04-08T12:45:02.795Z,11.30
2023-04-08T12:47:30.547Z,8.10
2023-04-08T12:49:57.686Z,11.85
2023-04-08T12:52:24.710Z,11.43
2023-04-08T12:54:51.676Z,9.45
2023-04-08T12:57:18.623Z,13.23
2023-04-08T12:59:45.601Z,8.30
2023-04-08T13:02:12.651Z,9.27
2023-04-08T13:04:39.932Z,9.63
2023-04-08T13:07:07.798Z,11.68
2023-04-08T13:09:34.950Z,9.13
2023-04-08T13:12:02.152Z,9.30
2023-04-08T13:14:29.211Z,8.93
2023-04-08T13:16:56.309Z,8.88
2023-04-08T13:19:23.308Z,10.13
2023-04-08T13:21:50.458Z,7.15
2023-04-08T13:24:18.335Z,10.60
2023-04-08T13:26:45.525Z,8.90
2023-04-08T13:29:12.488Z,8.40
2023-04-08T13:31:39.575Z,7.20
2023-04-08T13:34:06.550Z,11.32
2023-04-08T13:36:33.501Z,10.80
2023-04-08T13:39:00.457Z,9.65
2023-04-08T13:41:28.577Z,9.13
2023-04-08T13:43:56.678Z,9.57
2023-04-08T13:46:23.943Z,10.52
2023-04-08T13:48:51.337Z,8.55
2023-04-08T13:51:18.675Z,8.63
2023-04-08T13:53:45.745Z,9.93
2023-04-08T13:56:13.297Z,11.32
2023-04-08T13:58:40.683Z,10.73
2023-04-08T14:01:07.665Z,8.63
2023-04-08T14:03:34.745Z,9.73
2023-04-08T14:06:02.153Z,7.43
2023-04-08T14:08:29.193Z,8.38
2023-04-08T14:10:57.684Z,8.40
2023-04-08T14:13:24.687Z,10.48
2023-04-08T14:15:52.344Z,10.95
2023-04-08T14:18:19.699Z,9.25
2023-04-08T14:20:46.744Z,10.48
2023-04-08T14:23:13.740Z,8.48
2023-04-08T14:25:41.033Z,11.20
2023-04-08T14:28:08.288Z,12.80
2023-04-08T14:30:36.335Z,9.02
2023-04-08T14:33:05.380Z,12.98
2023-04-08T14:35:32.704Z,10.88
2023-04-08T14:38:00.280Z,7.82
2023-04-08T14:40:27.264Z,9.95
2023-04-08T14:42:54.219Z,13.35
2023-04-08T14:45:21.918Z,9.93
2023-04-08T14:47:48.981Z,9.60
2023-04-08T14:50:16.474Z,13.57
2023-04-08T14:52:45.436Z,13.57
2023-04-08T14:55:12.563Z,10.25
2023-04-08T14:57:39.666Z,8.10
2023-04-08T15:00:07.783Z,8.80
2023-04-08T15:02:34.905Z,9.50
2023-04-08T15:05:02.015Z,9.25
2023-04-08T15:07:29.838Z,8.68
2023-04-08T15:09:57.024Z,13.18
2023-04-08T15:12:24.629Z,9.07
2023-04-08T15:14:51.753Z,13.70
2023-04-08T15:17:18.844Z,9.50
2023-04-08T15:19:46.407Z,8.77
2023-04-08T15:22:13.454Z,11.57
2023-04-08T15:24:40.600Z,9.45
2023-04-08T15:27:07.788Z,9.40
2023-04-08T15:29:34.749Z,9.32
2023-04-08T15:32:01.996Z,10.63
2023-04-08T15:34:28.955Z,9.88
2023-04-08T15:36:58.881Z,9.07
2023-04-08T15:39:26.112Z,14.95
2023-04-08T15:41:53.417Z,11.65
2023-04-08T15:44:20.703Z,14.80
2023-04-08T15:46:47.740Z,12.18
2023-04-08T15:49:14.946Z,12.40
2023-04-08T15:51:44.667Z,9.48
2023-04-08T15:54:11.971Z,17.20
2023-04-08T15:56:39.032Z,12.90
2023-04-08T15:59:06.020Z,13.45
2023-04-08T16:01:33.445Z,10.50
2023-04-08T16:04:01.135Z,13.75
2023-04-08T16:06:28.301Z,15.25
2023-04-08T16:08:56.788Z,17.50
2023-04-08T16:11:25.336Z,14.10
2023-04-08T16:13:52.764Z,16.88
2023-04-08T16:16:19.929Z,15.80
2023-04-08T16:18:47.666Z,14.80
2023-04-08T16:21:14.793Z,15.80
2023-04-08T16:23:42.142Z,16.73
2023-04-08T16:26:09.269Z,18.05
2023-04-08T16:28:37.220Z,18.70
2023-04-08T16:31:04.292Z,16.08
2023-04-08T16:33:32.211Z,14.20
2023-04-08T16:36:04.376Z,12.85
2023-04-08T16:38:31.467Z,15.00
2023-04-08T16:40:58.912Z,17.15
2023-04-08T16:43:26.557Z,15.77
2023-04-08T16:45:54.255Z,18.33
2023-04-08T16:48:21.241Z,17.17
2023-04-08T16:50:48.180Z,16.05
2023-04-08T16:53:15.644Z,16.40
2023-04-08T16:55:42.608Z,19.40
2023-04-08T16:58:09.579Z,16.05
2023-04-08T17:00:36.756Z,18.02
2023-04-08T17:03:04.285Z,16.52
2023-04-08T17:05:31.244Z,19.52
2023-04-08T17:07:58.618Z,17.58
2023-04-08T17:10:25.593Z,14.88
2023-04-08T17:12:52.614Z,20.25
2023-04-08T17:15:19.787Z,19.38
2023-04-08T17:17:48.031Z,17.92
2023-04-08T17:20:15.167Z,18.92
2023-04-08T17:22:42.242Z,19.73
2023-04-08T17:25:09.595Z,21.13
2023-04-08T17:27:36.683Z,21.63
2023-04-08T17:30:04.121Z,19.45
2023-04-08T17:32:31.513Z,18.90
2023-04-08T17:34:58.520Z,23.08
2023-04-08T17:37:25.521Z,28.05
2023-04-08T17:39:52.646Z,19.30
2023-04-08T17:42:22.524Z,17.48
2023-04-08T17:44:49.674Z,23.10
2023-04-08T17:47:16.664Z,24.65
2023-04-08T17:49:43.675Z,24.42
2023-04-08T17:52:11.868Z,24.40
2023-04-08T17:54:38.911Z,21.10
2023-04-08T17:57:05.990Z,24.60
2023-04-08T17:59:33.035Z,25.33
2023-04-08T18:02:00.136Z,25.80
2023-04-08T18:04:28.660Z,21.75
2023-04-08T18:06:56.682Z,21.05
2023-04-08T18:09:23.696Z,25.23
2023-04-08T18:11:50.873Z,19.85
2023-04-08T18:14:17.927Z,24.02
2023-04-08T18:16:44.973Z,24.17
2023-04-08T18:19:12.575Z,19.83
2023-04-08T18:21:39.548Z,24.20
2023-04-08T18:24:08.760Z,24.58
2023-04-08T18:26:36.595Z,18.20
2023-04-08T18:29:03.627Z,20.45
2023-04-08T18:31:30.935Z,21.73
2023-04-08T18:33:57.937Z,19.10
2023-04-08T18:36:26.555Z,31.83
2023-04-08T18:38:53.652Z,31.13
2023-04-08T18:41:21.158Z,25.33
2023-04-08T18:43:48.102Z,23.10
2023-04-08T18:46:15.137Z,25.48
2023-04-08T18:48:42.114Z,29.63
2023-04-08T18:51:09.188Z,28.05
2023-04-08T18:53:36.296Z,24.80
2023-04-08T18:56:03.515Z,24.90
2023-04-08T18:58:32.065Z,22.55
2023-04-08T19:00:59.036Z,22.38
2023-04-08T19:03:27.407Z,27.83
2023-04-08T19:05:54.479Z,22.67
2023-04-08T19:08:21.447Z,31.52
2023-04-08T19:10:48.385Z,32.80
2023-04-08T19:13:15.550Z,30.50
2023-04-08T19:15:43.175Z,29.55
2023-04-08T19:18:10.358Z,24.25
2023-04-08T19:20:38.017Z,31.67
2023-04-08T19:23:05.944Z,28.42
2023-04-08T19:25:33.520Z,29.80
2023-04-08T19:28:01.387Z,32.25
2023-04-08T19:30:28.437Z,29.02
2023-04-08T19:32:57.161Z,28.95
2023-04-08T19:35:24.281Z,25.80
2023-04-08T19:37:51.215Z,24.73
2023-04-08T19:40:19.617Z,22.77
2023-04-08T19:42:46.662Z,28.45
2023-04-08T19:45:13.927Z,27.52
2023-04-08T19:47:43.313Z,26.48
2023-04-08T19:50:11.394Z,30.23
2023-04-08T19:52:39.609Z,25.08
2023-04-08T19:55:07.859Z,22.63
2023-04-08T19:57:35.765Z,24.80
2023-04-08T20:00:04.568Z,25.52
2023-04-08T20:02:34.067Z,26.92
2023-04-08T20:05:02.016Z,31.92
2023-04-08T20:07:31.006Z,26.33
2023-04-08T20:09:58.044Z,26.25
2023-04-08T20:12:25.034Z,25.27
2023-04-08T20:14:52.016Z,28.20
2023-04-08T20:17:20.965Z,29.60
2023-04-08T20:19:47.970Z,25.45
2023-04-08T20:22:15.148Z,22.88
2023-04-08T20:24:42.353Z,23.83
2023-04-08T20:27:09.434Z,25.30
2023-04-08T20:29:36.411Z,21.73
2023-04-08T20:32:03.488Z,16.63
2023-04-08T20:34:30.429Z,15.38
2023-04-08T20:36:57.475Z,22.13
2023-04-08T20:39:29.664Z,16.33
2023-04-08T20:42:00.449Z,22.92
2023-04-08T20:44:28.107Z,21.15
2023-04-08T20:46:55.138Z,21.55
2023-04-08T20:49:22.202Z,25.65
2023-04-08T20:51:49.188Z,20.30
2023-04-08T20:54:17.048Z,19.75
2023-04-08T20:56:44.111Z,21.80
2023-04-08T20:59:11.090Z,15.70
2023-04-08T21:01:38.126Z,20.83
2023-04-08T21:04:05.799Z,20.25
2023-04-08T21:06:32.780Z,19.08
2023-04-08T21:08:59.755Z,17.73
2023-04-08T21:11:28.515Z,18.65
2023-04-08T21:13:56.476Z,20.05
2023-04-08T21:16:23.434Z,14.43
2023-04-08T21:18:50.674Z,21.27
2023-04-08T21:21:17.781Z,16.75
2023-04-08T21:23:44.792Z,17.90
2023-04-08T21:26:13.517Z,20.20
2023-04-08T21:28:40.829Z,16.90
2023-04-08T21:31:09.273Z,17.40
2023-04-08T21:33:36.354Z,18.02
2023-04-08T21:36:03.984Z,19.05
2023-04-08T21:38:31.298Z,15.63
2023-04-08T21:40:58.714Z,21.52
2023-04-08T21:43:25.872Z,22.70
2023-04-08T21:45:56.056Z,17.10
2023-04-08T21:48:23.610Z,15.85
2023-04-08T21:50:50.774Z,18.70
2023-04-08T21:53:17.739Z,19.75
2023-04-08T21:55:44.688Z,17.33
2023-04-08T21:58:12.567Z,19.27
2023-04-08T22:00:39.646Z,18.13
2023-04-08T22:03:07.598Z,17.27
2023-04-08T22:05:35.458Z,14.65
2023-04-08T22:08:02.505Z,17.98
2023-04-08T22:10:29.700Z,17.55
2023-04-08T22:12:56.688Z,17.25
2023-04-08T22:15:23.672Z,15.95
2023-04-08T22:17:50.718Z,15.10
2023-04-08T22:20:17.831Z,14.95
2023-04-08T22:22:44.811Z,15.73
2023-04-08T22:25:11.820Z,15.07
2023-04-08T22:27:39.298Z,15.18
2023-04-08T22:30:07.138Z,15.13
2023-04-08T22:32:34.148Z,15.90
2023-04-08T22:35:01.381Z,16.13
2023-04-08T22:37:28.734Z,18.45
2023-04-08T22:39:55.692Z,16.98
2023-04-08T22:42:22.682Z,19.52
2023-04-08T22:44:49.636Z,14.82
2023-04-08T22:47:18.290Z,17.65
2023-04-08T22:49:45.402Z,16.25
2023-04-08T22:52:12.366Z,13.18
2023-04-08T22:54:39.376Z,19.25
2023-04-08T22:57:06.518Z,16.45
2023-04-08T22:59:33.463Z,14.55
2023-04-08T23:02:00.810Z,20.98
2023-04-08T23:04:28.070Z,18.92
2023-04-08T23:06:55.120Z,17.52
2023-04-08T23:09:23.802Z,16.05
2023-04-08T23:11:50.864Z,17.58
2023-04-08T23:14:17.781Z,19.25
2023-04-08T23:16:44.753Z,19.92
2023-04-08T23:19:11.669Z,16.50
2023-04-08T23:21:38.655Z,16.60
2023-04-08T23:24:06.743Z,18.55
2023-04-08T23:26:33.899Z,14.70
2023-04-08T23:29:01.044Z,18.98
2023-04-08T23:31:28.117Z,14.77
2023-04-08T23:33:55.081Z,16.55
2023-04-08T23:36:22.084Z,18.27
2023-04-08T23:38:50.761Z,16.98
2023-04-08T23:41:17.946Z,16.67
2023-04-08T23:43:46.244Z,17.50
2023-04-08T23:46:13.292Z,17.75
2023-04-08T23:48:40.389Z,16.10
2023-04-08T23:51:07.485Z,18.67
2023-04-08T23:53:34.495Z,17.23
2023-04-08T23:56:09.119Z,15.93
2023-04-08T23:58:36.237Z,17.67
